sensor_id;sensor_type;location;lat;lon;timestamp;temperature;humidity
53274;DHT22;39163;52.696;6.758;2022-11-15T11:58:39;13.10;99.90
53274;DHT22;39163;52.696;6.758;2022-11-15T12:01:41;13.40;99.90
53274;DHT22;39163;52.696;6.758;2022-11-15T12:06:50;13.60;99.90
53274;DHT22;39163;52.696;6.758;2022-11-15T12:09:19;13.80;99.90
53274;DHT22;39163;52.696;6.758;2022-11-15T12:14:50;13.90;99.90
53274;DHT22;39163;52.696;6.758;2022-11-15T12:17:26;14.00;99.90
53274;DHT22;39163;52.696;6.758;2022-11-15T12:19:56;14.10;99.90
53274;DHT22;39163;52.696;6.758;2022-11-15T12:28:15;14.40;99.90
53274;DHT22;39163;52.696;6.758;2022-11-15T12:31:21;14.50;99.90
53274;DHT22;39163;52.696;6.758;2022-11-15T12:33:48;14.70;99.90
53274;DHT22;39163;52.696;6.758;2022-11-15T12:39:07;14.80;99.90
53274;DHT22;39163;52.696;6.758;2022-11-15T12:41:36;14.70;99.90
53274;DHT22;39163;52.696;6.758;2022-11-15T12:44:03;14.60;99.90
53274;DHT22;39163;52.696;6.758;2022-11-15T12:59:59;14.70;99.90
53274;DHT22;39163;52.696;6.758;2022-11-15T13:17:45;14.30;99.90
53274;DHT22;39163;52.696;6.758;2022-11-15T13:20:21;14.10;99.90
53274;DHT22;39163;52.696;6.758;2022-11-15T13:22:50;14.00;99.90
53274;DHT22;39163;52.696;6.758;2022-11-15T13:28:37;14.00;99.90
53274;DHT22;39163;52.696;6.758;2022-11-15T13:31:23;14.00;99.90
53274;DHT22;39163;52.696;6.758;2022-11-15T13:33:50;14.10;99.90
53274;DHT22;39163;52.696;6.758;2022-11-15T13:36:23;14.00;99.90
53274;DHT22;39163;52.696;6.758;2022-11-15T13:38:58;13.90;99.90
53274;DHT22;39163;52.696;6.758;2022-11-15T13:41:29;13.80;99.90
53274;DHT22;39163;52.696;6.758;2022-11-15T13:43:56;13.80;99.90
53274;DHT22;39163;52.696;6.758;2022-11-15T13:46:32;13.70;99.90
53274;DHT22;39163;52.696;6.758;2022-11-15T13:49:18;13.60;99.90
53274;DHT22;39163;52.696;6.758;2022-11-15T13:51:54;13.50;99.90
53274;DHT22;39163;52.696;6.758;2022-11-15T13:57:44;13.40;99.90
53274;DHT22;39163;52.696;6.758;2022-11-15T13:59:55;13.40;99.90
53274;DHT22;39163;52.696;6.758;2022-11-15T14:02:29;13.30;99.90
53274;DHT22;39163;52.696;6.758;2022-11-15T14:05:25;13.30;99.90
53274;DHT22;39163;52.696;6.758;2022-11-15T14:10:33;13.10;99.90
53274;DHT22;39163;52.696;6.758;2022-11-15T14:12:59;13.10;99.90
53274;DHT22;39163;52.696;6.758;2022-11-15T14:17:57;13.00;99.90
53274;DHT22;39163;52.696;6.758;2022-11-15T14:22:56;12.80;99.90
53274;DHT22;39163;52.696;6.758;2022-11-15T14:25:28;12.70;99.90
53274;DHT22;39163;52.696;6.758;2022-11-15T14:28:32;12.60;99.90
53274;DHT22;39163;52.696;6.758;2022-11-15T14:30:59;12.60;99.90
53274;DHT22;39163;52.696;6.758;2022-11-15T14:35:55;12.50;99.90
53274;DHT22;39163;52.696;6.758;2022-11-15T14:38:23;12.50;99.90
53274;DHT22;39163;52.696;6.758;2022-11-15T14:40:49;12.50;99.90
53274;DHT22;39163;52.696;6.758;2022-11-15T14:43:15;12.40;99.90
53274;DHT22;39163;52.696;6.758;2022-11-15T14:45:41;12.40;99.90
53274;DHT22;39163;52.696;6.758;2022-11-15T14:48:07;12.30;99.90
53274;DHT22;39163;52.696;6.758;2022-11-15T14:50:34;12.20;99.90
53274;DHT22;39163;52.696;6.758;2022-11-15T14:53:00;12.20;99.90
53274;DHT22;39163;52.696;6.758;2022-11-15T14:55:28;12.20;99.90
53274;DHT22;39163;52.696;6.758;2022-11-15T14:57:58;12.20;99.90
53274;DHT22;39163;52.696;6.758;2022-11-15T15:00:24;12.20;99.90
53274;DHT22;39163;52.696;6.758;2022-11-15T15:02:52;12.20;99.90
53274;DHT22;39163;52.696;6.758;2022-11-15T15:05:21;12.20;99.90
53274;DHT22;39163;52.696;6.758;2022-11-15T15:07:49;12.10;99.90
53274;DHT22;39163;52.696;6.758;2022-11-15T15:10:16;12.10;99.90
53274;DHT22;39163;52.696;6.758;2022-11-15T15:12:42;12.10;99.90
53274;DHT22;39163;52.696;6.758;2022-11-15T15:15:23;12.10;99.90
53274;DHT22;39163;52.696;6.758;2022-11-15T15:17:49;12.00;99.90
53274;DHT22;39163;52.696;6.758;2022-11-15T15:20:15;12.00;99.90
53274;DHT22;39163;52.696;6.758;2022-11-15T15:22:41;11.90;99.90
53274;DHT22;39163;52.696;6.758;2022-11-15T15:25:30;11.90;99.90
53274;DHT22;39163;52.696;6.758;2022-11-15T15:27:57;11.90;99.90
53274;DHT22;39163;52.696;6.758;2022-11-15T15:30:24;11.90;99.90
53274;DHT22;39163;52.696;6.758;2022-11-15T15:32:50;11.80;99.90
53274;DHT22;39163;52.696;6.758;2022-11-15T15:35:17;11.80;99.90
53274;DHT22;39163;52.696;6.758;2022-11-15T15:37:45;11.80;99.90
53274;DHT22;39163;52.696;6.758;2022-11-15T15:40:15;11.70;99.90
53274;DHT22;39163;52.696;6.758;2022-11-15T15:42:41;11.70;99.90
53274;DHT22;39163;52.696;6.758;2022-11-15T15:45:08;11.70;99.90
53274;DHT22;39163;52.696;6.758;2022-11-15T15:47:34;11.70;99.90
53274;DHT22;39163;52.696;6.758;2022-11-15T15:50:00;11.60;99.90
53274;DHT22;39163;52.696;6.758;2022-11-15T15:52:26;11.60;99.90
53274;DHT22;39163;52.696;6.758;2022-11-15T15:54:52;11.50;99.90
53274;DHT22;39163;52.696;6.758;2022-11-15T15:57:17;11.50;99.90
53274;DHT22;39163;52.696;6.758;2022-11-15T15:59:44;11.50;99.90
53274;DHT22;39163;52.696;6.758;2022-11-15T16:02:13;11.40;99.90
53274;DHT22;39163;52.696;6.758;2022-11-15T16:04:39;11.40;99.90
53274;DHT22;39163;52.696;6.758;2022-11-15T16:07:06;11.40;99.90
53274;DHT22;39163;52.696;6.758;2022-11-15T16:09:37;11.30;99.90
53274;DHT22;39163;52.696;6.758;2022-11-15T16:12:21;11.30;99.90
53274;DHT22;39163;52.696;6.758;2022-11-15T16:14:47;11.30;99.90
53274;DHT22;39163;52.696;6.758;2022-11-15T16:17:19;11.30;99.90
53274;DHT22;39163;52.696;6.758;2022-11-15T16:19:45;11.20;99.90
53274;DHT22;39163;52.696;6.758;2022-11-15T16:22:11;11.20;99.90
53274;DHT22;39163;52.696;6.758;2022-11-15T16:24:37;11.10;99.90
53274;DHT22;39163;52.696;6.758;2022-11-15T16:27:02;11.10;99.90
53274;DHT22;39163;52.696;6.758;2022-11-15T16:29:28;11.10;99.90
53274;DHT22;39163;52.696;6.758;2022-11-15T16:31:54;11.10;99.90
53274;DHT22;39163;52.696;6.758;2022-11-15T16:34:20;11.10;99.90
53274;DHT22;39163;52.696;6.758;2022-11-15T16:36:46;11.10;99.90
53274;DHT22;39163;52.696;6.758;2022-11-15T16:39:12;11.00;99.90
53274;DHT22;39163;52.696;6.758;2022-11-15T16:41:44;11.10;99.90
53274;DHT22;39163;52.696;6.758;2022-11-15T16:44:13;11.10;99.90
53274;DHT22;39163;52.696;6.758;2022-11-15T16:46:41;11.10;99.90
53274;DHT22;39163;52.696;6.758;2022-11-15T16:49:13;11.10;99.90
53274;DHT22;39163;52.696;6.758;2022-11-15T16:51:40;11.10;99.90
53274;DHT22;39163;52.696;6.758;2022-11-15T16:54:07;11.10;99.90
53274;DHT22;39163;52.696;6.758;2022-11-15T16:56:33;11.10;99.90
53274;DHT22;39163;52.696;6.758;2022-11-15T16:59:00;11.20;99.90
53274;DHT22;39163;52.696;6.758;2022-11-15T17:01:29;11.20;99.90
53274;DHT22;39163;52.696;6.758;2022-11-15T17:03:55;11.20;99.90
53274;DHT22;39163;52.696;6.758;2022-11-15T17:06:21;11.20;99.90
53274;DHT22;39163;52.696;6.758;2022-11-15T17:08:47;11.20;99.90
53274;DHT22;39163;52.696;6.758;2022-11-15T17:11:19;11.20;99.90
53274;DHT22;39163;52.696;6.758;2022-11-15T17:13:45;11.20;99.90
53274;DHT22;39163;52.696;6.758;2022-11-15T17:16:13;11.30;99.90
53274;DHT22;39163;52.696;6.758;2022-11-15T17:18:39;11.30;99.90
53274;DHT22;39163;52.696;6.758;2022-11-15T17:21:12;11.30;99.90
53274;DHT22;39163;52.696;6.758;2022-11-15T17:23:39;11.30;99.90
53274;DHT22;39163;52.696;6.758;2022-11-15T17:26:05;11.30;99.90
53274;DHT22;39163;52.696;6.758;2022-11-15T17:28:32;11.30;99.90
53274;DHT22;39163;52.696;6.758;2022-11-15T17:30:58;11.30;99.90
53274;DHT22;39163;52.696;6.758;2022-11-15T17:33:24;11.30;99.90
53274;DHT22;39163;52.696;6.758;2022-11-15T17:35:57;11.30;99.90
53274;DHT22;39163;52.696;6.758;2022-11-15T17:38:23;11.20;99.90
53274;DHT22;39163;52.696;6.758;2022-11-15T17:41:06;11.20;99.90
53274;DHT22;39163;52.696;6.758;2022-11-15T17:43:33;11.30;99.90
53274;DHT22;39163;52.696;6.758;2022-11-15T17:46:04;11.20;99.90
53274;DHT22;39163;52.696;6.758;2022-11-15T17:48:30;11.20;99.90
53274;DHT22;39163;52.696;6.758;2022-11-15T17:51:02;11.20;99.90
53274;DHT22;39163;52.696;6.758;2022-11-15T17:53:36;11.30;99.90
53274;DHT22;39163;52.696;6.758;2022-11-15T17:56:04;11.20;99.90
53274;DHT22;39163;52.696;6.758;2022-11-15T17:58:31;11.20;99.90
53274;DHT22;39163;52.696;6.758;2022-11-15T18:01:16;11.20;99.90
53274;DHT22;39163;52.696;6.758;2022-11-15T18:03:42;11.20;99.90
53274;DHT22;39163;52.696;6.758;2022-11-15T18:06:08;11.10;99.90
53274;DHT22;39163;52.696;6.758;2022-11-15T18:08:35;11.20;99.90
53274;DHT22;39163;52.696;6.758;2022-11-15T18:11:09;11.20;99.90
53274;DHT22;39163;52.696;6.758;2022-11-15T18:13:41;11.20;99.90
53274;DHT22;39163;52.696;6.758;2022-11-15T18:16:09;11.20;99.90
53274;DHT22;39163;52.696;6.758;2022-11-15T18:18:35;11.20;99.90
53274;DHT22;39163;52.696;6.758;2022-11-15T18:21:11;11.10;99.90
53274;DHT22;39163;52.696;6.758;2022-11-15T18:23:37;11.10;99.90
53274;DHT22;39163;52.696;6.758;2022-11-15T18:26:04;11.20;99.90
53274;DHT22;39163;52.696;6.758;2022-11-15T18:28:35;11.20;99.90
53274;DHT22;39163;52.696;6.758;2022-11-15T18:31:03;11.20;99.90
53274;DHT22;39163;52.696;6.758;2022-11-15T18:33:32;11.20;99.90
53274;DHT22;39163;52.696;6.758;2022-11-15T18:36:04;11.20;99.90
53274;DHT22;39163;52.696;6.758;2022-11-15T18:38:31;11.10;99.90
53274;DHT22;39163;52.696;6.758;2022-11-15T18:41:12;11.10;99.90
53274;DHT22;39163;52.696;6.758;2022-11-15T18:43:43;11.10;99.90
53274;DHT22;39163;52.696;6.758;2022-11-15T18:46:14;11.10;99.90
53274;DHT22;39163;52.696;6.758;2022-11-15T18:48:48;11.10;99.90
53274;DHT22;39163;52.696;6.758;2022-11-15T18:51:18;11.10;99.90
53274;DHT22;39163;52.696;6.758;2022-11-15T18:53:50;11.10;99.90
53274;DHT22;39163;52.696;6.758;2022-11-15T18:56:17;11.20;99.90
53274;DHT22;39163;52.696;6.758;2022-11-15T18:58:54;11.10;99.90
53274;DHT22;39163;52.696;6.758;2022-11-15T19:01:35;11.10;99.90
53274;DHT22;39163;52.696;6.758;2022-11-15T19:04:09;11.20;99.90
53274;DHT22;39163;52.696;6.758;2022-11-15T19:06:42;11.20;99.90
53274;DHT22;39163;52.696;6.758;2022-11-15T19:09:10;11.20;99.90
53274;DHT22;39163;52.696;6.758;2022-11-15T19:11:38;11.30;99.90
53274;DHT22;39163;52.696;6.758;2022-11-15T19:14:06;11.30;99.90
53274;DHT22;39163;52.696;6.758;2022-11-15T19:16:37;11.30;99.90
53274;DHT22;39163;52.696;6.758;2022-11-15T19:19:09;11.30;99.90
53274;DHT22;39163;52.696;6.758;2022-11-15T19:21:47;11.30;99.90
53274;DHT22;39163;52.696;6.758;2022-11-15T19:24:13;11.40;99.90
53274;DHT22;39163;52.696;6.758;2022-11-15T19:26:58;11.50;99.90
53274;DHT22;39163;52.696;6.758;2022-11-15T19:29:24;11.40;99.90
53274;DHT22;39163;52.696;6.758;2022-11-15T19:31:56;11.50;99.90
53274;DHT22;39163;52.696;6.758;2022-11-15T19:34:21;11.50;99.90
53274;DHT22;39163;52.696;6.758;2022-11-15T19:36:53;11.50;99.90
53274;DHT22;39163;52.696;6.758;2022-11-15T19:39:23;11.50;99.90
53274;DHT22;39163;52.696;6.758;2022-11-15T19:41:49;11.50;99.90
53274;DHT22;39163;52.696;6.758;2022-11-15T19:44:15;11.50;99.90
53274;DHT22;39163;52.696;6.758;2022-11-15T19:46:56;11.50;99.90
53274;DHT22;39163;52.696;6.758;2022-11-15T19:49:25;11.50;99.90
53274;DHT22;39163;52.696;6.758;2022-11-15T19:51:51;11.60;99.90
53274;DHT22;39163;52.696;6.758;2022-11-15T19:54:17;11.50;99.90
53274;DHT22;39163;52.696;6.758;2022-11-15T19:56:58;11.60;99.90
53274;DHT22;39163;52.696;6.758;2022-11-15T19:59:24;11.50;99.90
53274;DHT22;39163;52.696;6.758;2022-11-15T20:01:53;11.60;99.90
53274;DHT22;39163;52.696;6.758;2022-11-15T20:04:19;11.70;99.90
53274;DHT22;39163;52.696;6.758;2022-11-15T20:06:45;11.60;99.90
53274;DHT22;39163;52.696;6.758;2022-11-15T20:09:12;11.60;99.90
53274;DHT22;39163;52.696;6.758;2022-11-15T20:11:50;11.70;99.90
53274;DHT22;39163;52.696;6.758;2022-11-15T20:14:16;11.70;99.90
53274;DHT22;39163;52.696;6.758;2022-11-15T20:16:48;11.70;99.90
53274;DHT22;39163;52.696;6.758;2022-11-15T20:19:13;11.70;99.90
53274;DHT22;39163;52.696;6.758;2022-11-15T20:21:58;11.70;99.90
53274;DHT22;39163;52.696;6.758;2022-11-15T20:24:39;11.70;99.90
53274;DHT22;39163;52.696;6.758;2022-11-15T20:27:11;11.70;99.90
53274;DHT22;39163;52.696;6.758;2022-11-15T20:29:37;11.70;99.90
53274;DHT22;39163;52.696;6.758;2022-11-15T20:32:02;11.70;99.90
53274;DHT22;39163;52.696;6.758;2022-11-15T20:34:28;11.60;99.90
53274;DHT22;39163;52.696;6.758;2022-11-15T20:36:54;11.60;99.90
53274;DHT22;39163;52.696;6.758;2022-11-15T20:39:19;11.60;99.90
53274;DHT22;39163;52.696;6.758;2022-11-15T20:41:48;11.50;99.90
53274;DHT22;39163;52.696;6.758;2022-11-15T20:44:14;11.50;99.90
53274;DHT22;39163;52.696;6.758;2022-11-15T20:46:39;11.40;99.90
53274;DHT22;39163;52.696;6.758;2022-11-15T20:49:07;11.40;99.90
53274;DHT22;39163;52.696;6.758;2022-11-15T20:51:39;11.40;99.90
53274;DHT22;39163;52.696;6.758;2022-11-15T20:54:05;11.50;99.90
53274;DHT22;39163;52.696;6.758;2022-11-15T20:56:33;11.40;99.90
53274;DHT22;39163;52.696;6.758;2022-11-15T20:58:59;11.50;99.90
53274;DHT22;39163;52.696;6.758;2022-11-15T21:01:25;11.50;99.90
53274;DHT22;39163;52.696;6.758;2022-11-15T21:03:53;11.50;99.90
53274;DHT22;39163;52.696;6.758;2022-11-15T21:06:24;11.40;99.90
53274;DHT22;39163;52.696;6.758;2022-11-15T21:08:50;11.50;99.90
53274;DHT22;39163;52.696;6.758;2022-11-15T21:11:38;11.50;99.90
53274;DHT22;39163;52.696;6.758;2022-11-15T21:14:23;11.50;99.90
53274;DHT22;39163;52.696;6.758;2022-11-15T21:16:52;11.50;99.90
53274;DHT22;39163;52.696;6.758;2022-11-15T21:19:18;11.50;99.90
53274;DHT22;39163;52.696;6.758;2022-11-15T21:21:43;11.50;99.90
53274;DHT22;39163;52.696;6.758;2022-11-15T21:24:12;11.50;99.90
53274;DHT22;39163;52.696;6.758;2022-11-15T21:26:38;11.50;99.90
53274;DHT22;39163;52.696;6.758;2022-11-15T21:29:04;11.60;99.90
53274;DHT22;39163;52.696;6.758;2022-11-15T21:31:29;11.50;99.90
53274;DHT22;39163;52.696;6.758;2022-11-15T21:34:02;11.60;99.90
53274;DHT22;39163;52.696;6.758;2022-11-15T21:36:29;11.50;99.90
53274;DHT22;39163;52.696;6.758;2022-11-15T21:38:54;11.50;99.90
53274;DHT22;39163;52.696;6.758;2022-11-15T21:41:20;11.50;99.90
53274;DHT22;39163;52.696;6.758;2022-11-15T21:43:46;11.50;99.90
53274;DHT22;39163;52.696;6.758;2022-11-15T21:46:12;11.50;99.90
53274;DHT22;39163;52.696;6.758;2022-11-15T21:48:37;11.50;99.90
53274;DHT22;39163;52.696;6.758;2022-11-15T21:51:06;11.40;99.90
53274;DHT22;39163;52.696;6.758;2022-11-15T21:53:32;11.40;99.90
53274;DHT22;39163;52.696;6.758;2022-11-15T21:55:59;11.40;99.90
53274;DHT22;39163;52.696;6.758;2022-11-15T21:58:25;11.40;99.90
53274;DHT22;39163;52.696;6.758;2022-11-15T22:00:54;11.40;99.90
53274;DHT22;39163;52.696;6.758;2022-11-15T22:03:39;11.40;99.90
53274;DHT22;39163;52.696;6.758;2022-11-15T22:06:05;11.30;99.90
53274;DHT22;39163;52.696;6.758;2022-11-15T22:08:31;11.40;99.90
53274;DHT22;39163;52.696;6.758;2022-11-15T22:10:57;11.30;99.90
53274;DHT22;39163;52.696;6.758;2022-11-15T22:13:24;11.30;99.90
53274;DHT22;39163;52.696;6.758;2022-11-15T22:15:51;11.30;99.90
53274;DHT22;39163;52.696;6.758;2022-11-15T22:18:22;11.30;99.90
53274;DHT22;39163;52.696;6.758;2022-11-15T22:20:59;11.30;99.90
53274;DHT22;39163;52.696;6.758;2022-11-15T22:23:27;11.20;99.90
53274;DHT22;39163;52.696;6.758;2022-11-15T22:25:53;11.20;99.90
53274;DHT22;39163;52.696;6.758;2022-11-15T22:28:20;11.20;99.90
53274;DHT22;39163;52.696;6.758;2022-11-15T22:30:51;11.20;99.90
53274;DHT22;39163;52.696;6.758;2022-11-15T22:33:19;11.10;99.90
53274;DHT22;39163;52.696;6.758;2022-11-15T22:35:45;11.10;99.90
53274;DHT22;39163;52.696;6.758;2022-11-15T22:38:11;11.10;99.90
53274;DHT22;39163;52.696;6.758;2022-11-15T22:40:38;11.10;99.90
53274;DHT22;39163;52.696;6.758;2022-11-15T22:43:04;11.10;99.90
53274;DHT22;39163;52.696;6.758;2022-11-15T22:45:31;11.10;99.90
53274;DHT22;39163;52.696;6.758;2022-11-15T22:47:57;11.10;99.90
53274;DHT22;39163;52.696;6.758;2022-11-15T22:50:23;11.10;99.90
53274;DHT22;39163;52.696;6.758;2022-11-15T22:52:51;11.10;99.90
53274;DHT22;39163;52.696;6.758;2022-11-15T22:55:17;11.10;99.90
53274;DHT22;39163;52.696;6.758;2022-11-15T22:57:43;11.00;99.90
53274;DHT22;39163;52.696;6.758;2022-11-15T23:00:14;11.00;99.90
53274;DHT22;39163;52.696;6.758;2022-11-15T23:02:41;11.10;99.90
53274;DHT22;39163;52.696;6.758;2022-11-15T23:05:07;11.10;99.90
53274;DHT22;39163;52.696;6.758;2022-11-15T23:07:35;11.10;99.90
53274;DHT22;39163;52.696;6.758;2022-11-15T23:10:00;11.00;99.90
53274;DHT22;39163;52.696;6.758;2022-11-15T23:12:45;11.00;99.90
53274;DHT22;39163;52.696;6.758;2022-11-15T23:15:30;11.10;99.90
53274;DHT22;39163;52.696;6.758;2022-11-15T23:18:17;11.00;99.90
53274;DHT22;39163;52.696;6.758;2022-11-15T23:20:43;11.00;99.90
53274;DHT22;39163;52.696;6.758;2022-11-15T23:23:09;11.00;99.90
53274;DHT22;39163;52.696;6.758;2022-11-15T23:25:35;11.00;99.90
53274;DHT22;39163;52.696;6.758;2022-11-15T23:28:02;11.00;99.90
53274;DHT22;39163;52.696;6.758;2022-11-15T23:30:27;10.90;99.90
53274;DHT22;39163;52.696;6.758;2022-11-15T23:33:15;10.90;99.90
53274;DHT22;39163;52.696;6.758;2022-11-15T23:35:59;10.90;99.90
53274;DHT22;39163;52.696;6.758;2022-11-15T23:38:26;10.90;99.90
53274;DHT22;39163;52.696;6.758;2022-11-15T23:40:58;10.90;99.90
53274;DHT22;39163;52.696;6.758;2022-11-15T23:43:26;10.90;99.90
53274;DHT22;39163;52.696;6.758;2022-11-15T23:45:52;10.80;99.90
53274;DHT22;39163;52.696;6.758;2022-11-15T23:48:18;11.00;99.90
53274;DHT22;39163;52.696;6.758;2022-11-15T23:50:49;10.90;99.90
53274;DHT22;39163;52.696;6.758;2022-11-15T23:53:15;10.90;99.90
53274;DHT22;39163;52.696;6.758;2022-11-15T23:56:05;10.90;99.90
53274;DHT22;39163;52.696;6.758;2022-11-15T23:58:32;10.90;99.90
